Terminal Aerodrome Forecast
Issued by NWS

Home | Current Version | Previous Version | Text Only | Print | Product List | Glossary On
Versions: 1 2 3 4 5 6 7 8 9 10 11 12 13 14 15 16
000
FTUS46 KMTR 172300
TAFOAK
TAF
KOAK 172331Z 1800/1906 19006KT 6SM -RA BR SCT020 BKN025 OVC080
      TEMPO 1801/1804 4SM RA BKN020 OVC025
     FM180800 14006KT P6SM -SHRA BKN015 OVC030
     FM181500 12004KT P6SM VCSH BKN015 OVC025
     FM181800 16005KT P6SM BKN025 OVC030=

USA.gov is the U.S. government's official web portal to all federal, state and local government web resources and services.